Terminal Aerodrome Forecast
Issued by NWS

Home | Current Version | Previous Version | Text Only | Print | Product List | Glossary On
Versions: 1 2 3 4 5 6 7 8 9 10 11 12 13
000
FTUS43 KLSX 200520
TAFCPS
TAF
KCPS 200520Z 2006/2106 17007KT P6SM FEW250 WS012/24040KT
     FM201200 20007KT P6SM BKN100
     FM202100 27007KT P6SM BKN110
     FM210100 36005KT P6SM SCT110
     FM210500 04005KT P6SM BKN045=

USA.gov is the U.S. government's official web portal to all federal, state and local government web resources and services.